Latest Coastal Weather Observations for Middle Percy Island

IDQ60701

Issued at 6:32 pm EST Saturday 21 January 2017 (issued every 10 minutes, with the page automatically refreshed every 10 minutes)

About coastal observations | Map of coastal stations | Coastal observations for QLD | Marine services | Other Formats
Station Details ID: 200001 Name: MIDDLE PERCY ISLAND Lat: -21.66 Lon: 150.27 Height: 208.7 m
Data from the previous 72 hours. | See also: Recent months at Middle Percy Island
Date/Time
EST
Temp
°C
Wind Pressure Rain since
9am
mm
Weather Cloud Vis
km
Sea
Height
m
Swell
Dir  Spd
kts
Gust
kts
hPa Trend Height
m
Period
s
Dir
21/06:30pm 26.6 N 6 9 1007.6 - 0.0 - - - - - - -
21/06:00pm 27.1 N 8 11 1007.3 - 0.0 - - - - - - -
21/05:30pm 27.5 N 7 11 1007.0 - 0.0 - - - - - - -
21/05:00pm 27.6 N 8 11 1007.1 - 0.0 - - - - - - -
21/04:30pm 27.2 NNW 8 11 1007.0 - 0.0 - - - - - - -
21/04:00pm 28.0 N 10 15 1006.7 - 0.0 - - - - - - -
21/03:30pm 27.9 N 10 13 1007.2 - 0.0 - - - - - - -
21/03:00pm 28.4 NNW 9 12 1007.7 - 0.0 - - - - - - -
21/02:30pm 29.3 NNW 7 11 1007.9 - 0.0 - - - - - - -
21/02:00pm 28.4 N 10 16 1007.9 - 0.0 - - - - - - -
21/01:30pm 28.5 N 11 15 1008.1 - 0.0 - - - - - - -
21/01:00pm 29.5 NW 7 11 1008.6 - 0.0 - - - - - - -
21/12:30pm 28.0 NW 6 10 1009.0 - 0.0 - - - - - - -
21/12:00pm 28.4 NW 6 9 1009.0 - 0.0 - - - - - - -
21/11:30am 28.9 WNW 5 9 1009.1 - 0.0 - - - - - - -
21/11:00am 28.4 NNW 8 14 1009.2 - 0.0 - - - - - - -
21/10:30am 28.1 NW 8 12 1009.8 - 0.0 - - - - - - -
21/10:00am 27.0 NW 7 11 1010.1 - 0.0 - - - - - - -
21/09:30am 28.3 NW 6 12 1010.1 - 0.0 - - - - - - -
21/09:00am 27.6 NW 8 13 1009.9 - 0.0 - - - - - - -
21/08:30am 28.3 NNW 5 8 1009.9 - 0.0 - - - - - - -
21/08:00am 27.4 NNW 7 11 1009.8 - 0.0 - - - - - - -
21/07:30am 26.8 NNW 8 13 1009.4 - 0.0 - - - - - - -
21/07:00am 26.0 NNW 10 14 1009.2 - 0.0 - - - - - - -
21/06:30am 25.4 NNW 8 11 1009.2 - 0.0 - - - - - - -
21/06:00am 24.9 NNW 8 13 1009.0 - 0.0 - - - - - - -
21/05:30am 24.3 NNW 7 11 1008.7 - 0.0 - - - - - - -
21/05:00am 24.2 N 7 10 1008.2 - 0.0 - - - - - - -
21/04:30am 24.2 N 8 12 1007.7 - 0.0 - - - - - - -
21/04:00am 24.2 N 8 11 1007.4 - 0.0 - - - - - - -
21/03:30am 24.0 N 8 11 1007.3 - 0.0 - - - - - - -
21/03:00am 24.1 N 6 10 1007.5 - 0.0 - - - - - - -
21/02:30am 24.4 N 7 12 1007.4 - 0.0 - - - - - - -
21/02:00am 24.4 N 9 12 1007.5 - 0.0 - - - - - - -
21/01:30am 23.9 N 8 11 1008.0 - 0.0 - - - - - - -
21/01:00am 24.0 N 6 8 1008.5 - 0.0 - - - - - - -
21/12:30am 24.1 N 7 9 1008.8 - 0.0 - - - - - - -
21/12:00am 24.2 N 6 10 1009.1 - 0.0 - - - - - - -
 
Date/Time
EST
Temp
°C
Wind Pressure Rain since
9am
mm
Weather Cloud Vis
km
Sea
Height
m
Swell
Dir  Spd
kts
Gust
kts
hPa Trend Height
m
Period
s
Dir
20/11:30pm 24.0 N 6 9 1009.3 - 0.0 - - - - - - -
20/11:00pm 24.1 NNW 2 6 1009.3 - 0.0 - - - - - - -
20/10:30pm 24.4 N 11 15 1009.1 - 0.0 - - - - - - -
20/10:00pm 24.3 N 9 13 1009.0 - 0.0 - - - - - - -
20/09:30pm 24.3 N 10 13 1008.9 - 0.0 - - - - - - -
20/09:00pm 24.3 NNE 8 11 1008.7 - 0.0 - - - - - - -
20/08:30pm 24.6 NNE 9 13 1008.6 - 0.0 - - - - - - -
20/08:00pm 24.7 NNE 9 12 1008.4 - 0.0 - - - - - - -
20/07:30pm 24.9 NNE 7 11 1008.4 - 0.0 - - - - - - -
20/07:00pm 24.8 NNE 6 10 1008.2 - 0.0 - - - - - - -
20/06:30pm 25.5 NNE 6 9 1008.0 - 0.0 - - - - - - -
20/06:00pm 26.3 NNE 7 9 1007.5 - 0.0 - - - - - - -
20/05:30pm 26.8 NE 6 9 1007.1 - 0.0 - - - - - - -
20/05:00pm 27.1 NNE 6 9 1006.9 - 0.0 - - - - - - -
20/04:30pm 27.6 NE 6 9 1006.9 - 0.0 - - - - - - -
20/04:00pm 27.5 NE 7 10 1007.2 - 0.0 - - - - - - -
20/03:30pm 27.6 ENE 7 11 1007.6 - 0.0 - - - - - - -
20/03:00pm 28.1 NE 7 11 1007.9 - 0.0 - - - - - - -
20/02:30pm 28.3 NNE 8 11 1008.1 - 0.0 - - - - - - -
20/02:00pm 28.0 NE 7 11 1008.4 - 0.0 - - - - - - -
20/01:30pm 28.6 ENE 6 9 1008.8 - 0.0 - - - - - - -
20/01:00pm 28.9 ENE 6 10 1009.2 - 0.0 - - - - - - -
20/12:30pm 28.6 NE 6 12 1009.6 - 0.0 - - - - - - -
20/12:00pm 28.4 NE 5 9 1009.8 - 0.0 - - - - - - -
20/11:30am 28.5 NE 4 8 1009.9 - 0.0 - - - - - - -
20/11:00am 28.6 ENE 3 6 1010.3 - 0.0 - - - - - - -
20/10:30am 28.1 NNE 4 7 1010.6 - 0.0 - - - - - - -
20/10:00am 28.0 NNW 3 5 1010.6 - 0.0 - - - - - - -
20/09:30am 28.4 NNE 3 7 1010.6 - 0.0 - - - - - - -
20/09:00am 28.1 E 5 8 1010.5 - 0.0 - - - - - - -
20/08:30am 27.6 NE 4 7 1010.3 - 0.0 - - - - - - -
20/08:00am 27.0 N 4 6 1010.3 - 0.0 - - - - - - -
20/07:30am 27.1 NNE 4 8 1010.1 - 0.0 - - - - - - -
20/07:00am 25.6 NNE 4 7 1010.0 - 0.0 - - - - - - -
20/06:30am 25.2 NNE 5 6 1009.9 - 0.0 - - - - - - -
20/06:00am 24.5 NNE 7 8 1009.3 - 0.0 - - - - - - -
20/05:30am 24.2 NNE 5 6 1008.8 - 0.0 - - - - - - -
20/05:00am 24.3 NNE 5 6 1008.6 - 0.0 - - - - - - -
20/04:30am 24.3 N 5 7 1008.4 - 0.0 - - - - - - -
20/04:00am 24.7 NNE 7 10 1008.2 - 0.0 - - - - - - -
20/03:30am 24.6 NNE 6 8 1008.3 - 0.0 - - - - - - -
20/03:00am 24.6 N 7 9 1008.1 - 0.0 - - - - - - -
20/02:30am 24.7 NNE 7 9 1008.4 - 0.0 - - - - - - -
20/02:00am 24.6 NNE 6 9 1008.6 - 0.0 - - - - - - -
20/01:30am 25.1 N 8 13 1008.5 - 0.0 - - - - - - -
20/01:00am 25.2 NNE 11 15 1008.6 - 0.0 - - - - - - -
20/12:30am 25.1 NNE 10 14 1008.8 - 0.0 - - - - - - -
20/12:00am 25.3 N 13 19 1008.6 - 0.0 - - - - - - -
 
Date/Time
EST
Temp
°C
Wind Pressure Rain since
9am
mm
Weather Cloud Vis
km
Sea
Height
m
Swell
Dir  Spd
kts
Gust
kts
hPa Trend Height
m
Period
s
Dir
19/11:30pm 25.5 N 11 17 1008.9 - 0.0 - - - - - - -
19/11:00pm 25.6 N 16 21 1008.5 - 0.0 - - - - - - -
19/10:30pm 25.4 N 16 21 1008.2 - 0.0 - - - - - - -
19/10:00pm 25.5 NNE 16 21 1008.4 - 0.0 - - - - - - -
19/09:30pm 25.6 NNE 15 20 1008.4 - 0.0 - - - - - - -
19/09:00pm 25.6 NNE 12 17 1008.4 - 0.0 - - - - - - -
19/08:30pm 25.8 NNE 13 18 1008.3 - 0.0 - - - - - - -
19/08:00pm 25.9 N 12 16 1008.2 - 0.0 - - - - - - -
19/07:30pm 25.9 N 13 16 1007.7 - 0.0 - - - - - - -
19/07:00pm 26.0 N 12 17 1007.5 - 0.0 - - - - - - -
19/06:30pm 26.3 N 11 16 1007.5 - 0.0 - - - - - - -
19/06:00pm 26.8 NNE 10 14 1007.4 - 0.0 - - - - - - -
19/05:30pm 27.3 N 7 11 1007.2 - 0.0 - - - - - - -
19/05:00pm 27.5 N 10 13 1007.0 - 0.0 - - - - - - -
19/04:30pm 28.1 N 8 11 1007.3 - 0.0 - - - - - - -
19/04:00pm 28.6 N 6 8 1007.4 - 0.0 - - - - - - -
19/03:30pm 29.4 N 4 7 1007.5 - 0.0 - - - - - - -
19/03:00pm 29.6 N 5 10 1007.6 - 0.0 - - - - - - -
19/02:30pm 29.4 NW 3 5 1008.3 - 0.0 - - - - - - -
19/02:00pm 29.8 NW 3 6 1008.8 - 0.0 - - - - - - -
19/01:30pm 29.3 NW 4 7 1009.3 - 0.0 - - - - - - -
19/01:00pm 29.6 NW 6 9 1009.6 - 0.0 - - - - - - -
19/12:30pm 29.3 NW 4 7 1010.1 - 0.0 - - - - - - -
19/12:00pm 28.9 W 4 7 1010.3 - 0.0 - - - - - - -
19/11:30am 28.2 WNW 6 8 1010.7 - 0.0 - - - - - - -
19/11:00am 28.6 WNW 4 9 1010.9 - 0.0 - - - - - - -
19/10:30am 27.9 WNW 6 9 1011.2 - 0.0 - - - - - - -
19/10:00am 27.6 NW 7 11 1011.0 - 0.0 - - - - - - -
19/09:30am 27.8 NW 8 12 1011.0 - 0.0 - - - - - - -
19/09:00am 27.2 NW 6 9 1011.5 - 0.0 - - - - - - -
19/08:30am 27.5 NNW 4 6 1011.6 - 0.0 - - - - - - -
19/08:00am 26.7 N 5 9 1011.6 - 0.0 - - - - - - -
19/07:30am 26.3 N 5 7 1011.5 - 0.0 - - - - - - -
19/07:00am 25.6 N 4 7 1011.4 - 0.0 - - - - - - -
19/06:30am 24.8 N 5 6 1011.3 - 0.0 - - - - - - -
19/06:00am 23.8 NNW 5 6 1010.9 - 0.0 - - - - - - -
19/05:30am 23.5 N 6 7 1010.7 - 0.0 - - - - - - -
19/05:00am 23.7 N 6 7 1010.4 - 0.0 - - - - - - -
19/04:30am 23.7 N 6 7 1010.1 - 0.0 - - - - - - -
19/04:00am 24.2 NNE 4 5 1010.0 - 0.0 - - - - - - -
19/03:30am 24.1 NNE 5 7 1010.0 - 0.0 - - - - - - -
19/03:00am 24.3 NNE 5 8 1010.0 - 0.0 - - - - - - -
19/02:30am 24.5 N 5 7 1010.3 - 0.0 - - - - - - -
19/02:00am 24.6 N 6 8 1010.5 - 0.0 - - - - - - -
19/01:30am 24.5 NNE 5 7 1010.6 - 0.0 - - - - - - -
19/01:00am 24.6 NNE 6 9 1010.8 - 0.0 - - - - - - -
19/12:30am 24.6 N 7 9 1011.3 - 0.0 - - - - - - -
19/12:00am 24.7 N 6 8 1011.6 - 0.0 - - - - - - -
 
Date/Time
EST
Temp
°C
Wind Pressure Rain since
9am
mm
Weather Cloud Vis
km
Sea
Height
m
Swell
Dir  Spd
kts
Gust
kts
hPa Trend Height
m
Period
s
Dir
18/11:30pm 24.6 NNE 6 8 1011.7 - 0.0 - - - - - - -
18/11:00pm 24.8 NNE 5 8 1012.0 - 0.0 - - - - - - -
18/10:30pm 24.9 NNE 7 12 1011.9 - 0.0 - - - - - - -
18/10:00pm 25.2 NE 5 9 1012.1 - 0.0 - - - - - - -
18/09:30pm 25.2 NE 7 11 1011.8 - 0.0 - - - - - - -
18/09:00pm 25.4 NE 9 13 1011.8 - 0.0 - - - - - - -
18/08:30pm 25.4 NE 8 11 1011.5 - 0.0 - - - - - - -
18/08:00pm 25.4 ENE 8 12 1011.4 - 0.0 - - - - - - -
18/07:30pm 25.5 NE 6 9 1011.4 - 0.0 - - - - - - -
18/07:00pm 25.6 NE 7 10 1011.1 - 0.0 - - - - - - -

Other Formats:

Comma delimited format used in spreadsheet applications
http://www.bom.gov.au/fwo/IDQ60701/IDQ60701.94372.axf

JavaScript Object Notation format (JSON) in row-major order
http://www.bom.gov.au/fwo/IDQ60701/IDQ60701.94372.json